createdAt,value
2023-05-21T00:02:19.858Z,66.20
2023-05-21T00:04:47.508Z,66.10
2023-05-21T00:07:15.226Z,66.04
2023-05-21T00:09:41.873Z,66.32
2023-05-21T00:12:09.047Z,66.07
2023-05-21T00:14:35.754Z,65.77
2023-05-21T00:17:02.234Z,66.42
2023-05-21T00:19:28.817Z,66.33
2023-05-21T00:21:55.988Z,66.93
2023-05-21T00:24:22.517Z,66.30
2023-05-21T00:26:48.942Z,66.54
2023-05-21T00:29:15.680Z,66.91
2023-05-21T00:31:42.200Z,66.77
2023-05-21T00:34:08.681Z,66.73
2023-05-21T00:36:35.556Z,67.32
2023-05-21T00:39:02.564Z,66.74
2023-05-21T00:41:30.215Z,67.60
2023-05-21T00:43:57.234Z,66.89
2023-05-21T00:46:24.150Z,67.28
2023-05-21T00:48:52.007Z,67.18
2023-05-21T00:51:21.621Z,67.79
2023-05-21T00:53:52.544Z,67.38
2023-05-21T00:56:22.688Z,67.82
2023-05-21T00:58:51.852Z,68.33
2023-05-21T01:01:19.362Z,68.27
2023-05-21T01:03:48.702Z,68.19
2023-05-21T01:06:15.998Z,68.32
2023-05-21T01:08:42.557Z,69.06
2023-05-21T01:11:10.626Z,68.30
2023-05-21T01:13:39.934Z,68.46
2023-05-21T01:16:08.630Z,69.08
2023-05-21T01:18:43.133Z,69.23
2023-05-21T01:21:11.491Z,69.49
2023-05-21T01:23:38.163Z,69.34
2023-05-21T01:26:04.643Z,69.43
2023-05-21T01:28:32.952Z,69.91
2023-05-21T01:31:12.224Z,70.04
2023-05-21T01:33:49.072Z,70.16
2023-05-21T01:36:24.086Z,70.20
2023-05-21T01:39:02.100Z,70.20
2023-05-21T01:41:33.402Z,70.28
2023-05-21T01:44:01.117Z,70.66
2023-05-21T01:46:30.730Z,70.75
2023-05-21T01:48:57.646Z,70.69
2023-05-21T01:51:24.697Z,70.51
2023-05-21T01:53:51.384Z,70.82
2023-05-21T01:56:17.882Z,70.24
2023-05-21T01:58:44.448Z,70.43
2023-05-21T02:01:11.981Z,71.07
2023-05-21T02:03:38.730Z,71.02
2023-05-21T02:06:05.424Z,70.78
2023-05-21T02:08:31.898Z,70.93
2023-05-21T02:10:58.336Z,71.57
2023-05-21T02:13:26.239Z,71.36
2023-05-21T02:15:54.800Z,71.36
2023-05-21T02:18:22.081Z,71.35
2023-05-21T02:20:48.562Z,71.80
2023-05-21T02:23:15.138Z,71.97
2023-05-21T02:25:41.580Z,72.09
2023-05-21T02:28:08.142Z,72.01
2023-05-21T02:30:35.214Z,72.28
2023-05-21T02:33:02.947Z,72.22
2023-05-21T02:35:29.562Z,72.19
2023-05-21T02:37:59.095Z,71.88
2023-05-21T02:40:25.588Z,72.52
2023-05-21T02:42:52.046Z,72.32
2023-05-21T02:45:18.547Z,72.59
2023-05-21T02:47:45.083Z,72.52
2023-05-21T02:50:13.564Z,72.41
2023-05-21T02:52:40.085Z,71.93
2023-05-21T02:55:07.102Z,71.73
2023-05-21T02:57:33.668Z,72.63
2023-05-21T03:00:00.090Z,72.74
2023-05-21T03:02:26.609Z,72.94
2023-05-21T03:04:53.199Z,72.60
2023-05-21T03:07:19.772Z,72.10
2023-05-21T03:09:46.564Z,72.58
2023-05-21T03:12:13.123Z,72.92
2023-05-21T03:14:39.584Z,72.71
2023-05-21T03:17:06.433Z,72.94
2023-05-21T03:19:35.769Z,72.84
2023-05-21T03:22:03.677Z,73.21
2023-05-21T03:24:30.812Z,73.30
2023-05-21T03:26:57.556Z,73.50
2023-05-21T03:29:24.060Z,74.09
2023-05-21T03:31:52.883Z,74.00
2023-05-21T03:34:20.117Z,73.39
2023-05-21T03:36:47.890Z,73.69
2023-05-21T03:39:14.556Z,73.58
2023-05-21T03:41:41.217Z,73.33
2023-05-21T03:44:07.789Z,73.13
2023-05-21T03:46:34.400Z,72.98
2023-05-21T03:49:00.959Z,73.34
2023-05-21T03:51:27.707Z,73.58
2023-05-21T03:53:54.202Z,73.97
2023-05-21T03:56:21.562Z,73.92
2023-05-21T03:58:48.070Z,74.07
2023-05-21T04:01:14.597Z,73.77
2023-05-21T04:03:41.324Z,73.94
2023-05-21T04:06:10.109Z,73.36
2023-05-21T04:08:37.965Z,74.48
2023-05-21T04:11:04.620Z,73.99
2023-05-21T04:13:31.058Z,74.02
2023-05-21T04:15:57.562Z,73.53
2023-05-21T04:18:25.890Z,74.35
2023-05-21T04:20:52.689Z,74.10
2023-05-21T04:23:19.153Z,74.32
2023-05-21T04:25:45.621Z,74.11
2023-05-21T04:28:12.065Z,74.12
2023-05-21T04:30:38.485Z,74.43
2023-05-21T04:33:05.025Z,74.73
2023-05-21T04:35:31.513Z,74.82
2023-05-21T04:37:57.962Z,74.94
2023-05-21T04:40:24.471Z,74.79
2023-05-21T04:42:51.436Z,75.45
2023-05-21T04:45:18.018Z,74.62
2023-05-21T04:47:44.531Z,74.85
2023-05-21T04:50:10.996Z,74.88
2023-05-21T04:52:40.219Z,75.54
2023-05-21T04:55:09.967Z,75.08
2023-05-21T04:57:36.986Z,74.41
2023-05-21T05:00:06.410Z,74.63
2023-05-21T05:02:32.897Z,74.29
2023-05-21T05:04:59.865Z,74.77
2023-05-21T05:07:26.680Z,74.21
2023-05-21T05:09:53.096Z,73.89
2023-05-21T05:12:19.605Z,73.78
2023-05-21T05:14:46.217Z,73.94
2023-05-21T05:17:15.447Z,73.31
2023-05-21T05:19:42.057Z,73.73
2023-05-21T05:22:08.501Z,73.04
2023-05-21T05:24:35.000Z,72.22
2023-05-21T05:27:01.526Z,72.36
2023-05-21T05:29:27.989Z,73.37
2023-05-21T05:31:54.396Z,72.42
2023-05-21T05:34:21.531Z,73.12
2023-05-21T05:36:48.037Z,73.40
2023-05-21T05:39:14.520Z,73.04
2023-05-21T05:41:41.070Z,71.10
2023-05-21T05:44:08.956Z,69.77
2023-05-21T05:46:37.353Z,70.54
2023-05-21T05:49:03.884Z,70.54
2023-05-21T05:51:30.650Z,70.37
2023-05-21T05:53:57.163Z,70.42
2023-05-21T05:56:23.731Z,70.67
2023-05-21T05:58:50.218Z,71.33
2023-05-21T06:01:17.857Z,70.80
2023-05-21T06:03:44.622Z,71.00
2023-05-21T06:06:11.945Z,70.22
2023-05-21T06:08:40.488Z,69.79
2023-05-21T06:11:07.080Z,69.67
2023-05-21T06:13:33.731Z,70.04
2023-05-21T06:16:00.194Z,69.49
2023-05-21T06:18:26.774Z,69.56
2023-05-21T06:20:53.215Z,69.11
2023-05-21T06:23:19.666Z,68.93
2023-05-21T06:25:46.130Z,68.65
2023-05-21T06:28:12.687Z,69.13
2023-05-21T06:30:39.150Z,68.61
2023-05-21T06:33:05.758Z,67.79
2023-05-21T06:35:34.762Z,66.76
2023-05-21T06:38:01.280Z,67.41
2023-05-21T06:40:27.996Z,67.00
2023-05-21T06:42:56.088Z,66.64
2023-05-21T06:45:23.258Z,65.29
2023-05-21T06:47:49.714Z,67.09
2023-05-21T06:50:16.572Z,66.59
2023-05-21T06:52:43.110Z,66.13
2023-05-21T06:55:09.685Z,64.60
2023-05-21T06:57:37.963Z,64.79
2023-05-21T07:00:05.670Z,64.98
2023-05-21T07:02:32.260Z,64.92
2023-05-21T07:04:58.934Z,64.43
2023-05-21T07:07:25.751Z,64.62
2023-05-21T07:09:52.208Z,64.87
2023-05-21T07:12:18.631Z,64.22
2023-05-21T07:14:45.052Z,65.54
2023-05-21T07:17:11.548Z,65.54
2023-05-21T07:19:38.244Z,64.55
2023-05-21T07:22:05.925Z,64.78
2023-05-21T07:24:32.342Z,64.40
2023-05-21T07:26:58.844Z,63.89
2023-05-21T07:29:25.280Z,64.24
2023-05-21T07:31:51.705Z,64.45
2023-05-21T07:34:18.123Z,64.36
2023-05-21T07:36:44.577Z,64.22
2023-05-21T07:39:11.487Z,64.23
2023-05-21T07:41:37.894Z,64.83
2023-05-21T07:44:04.564Z,63.70
2023-05-21T07:46:31.051Z,63.84
2023-05-21T07:48:57.515Z,63.32
2023-05-21T07:51:24.401Z,63.65
2023-05-21T07:53:51.140Z,62.06
2023-05-21T07:56:18.322Z,61.64
2023-05-21T07:58:45.761Z,61.29
2023-05-21T08:01:12.532Z,60.59
2023-05-21T08:03:39.270Z,60.64
2023-05-21T08:06:05.934Z,61.14
2023-05-21T08:08:32.643Z,61.68
2023-05-21T08:10:59.121Z,60.70
2023-05-21T08:13:25.873Z,59.59
2023-05-21T08:15:53.399Z,58.08
2023-05-21T08:18:20.228Z,56.05
2023-05-21T08:20:46.674Z,55.44
2023-05-21T08:23:13.136Z,56.82
2023-05-21T08:25:39.741Z,55.24
2023-05-21T08:28:07.150Z,54.71
2023-05-21T08:30:33.936Z,54.83
2023-05-21T08:33:01.156Z,55.24
2023-05-21T08:35:27.615Z,55.75
2023-05-21T08:37:54.053Z,56.01
2023-05-21T08:40:20.704Z,57.02
2023-05-21T08:42:49.109Z,57.54
2023-05-21T08:45:21.634Z,57.37
2023-05-21T08:47:52.033Z,57.85
2023-05-21T08:50:19.457Z,57.68
2023-05-21T08:52:45.976Z,57.78
2023-05-21T08:55:12.832Z,58.41
2023-05-21T08:57:43.690Z,57.03
2023-05-21T09:00:11.783Z,56.58
2023-05-21T09:02:43.672Z,57.45
2023-05-21T09:05:10.343Z,56.95
2023-05-21T09:07:46.525Z,56.95
2023-05-21T09:10:14.069Z,57.29
2023-05-21T09:12:40.551Z,56.73
2023-05-21T09:15:07.775Z,57.72
2023-05-21T09:17:34.462Z,56.72
2023-05-21T09:20:13.617Z,56.73
2023-05-21T09:22:42.565Z,57.16
2023-05-21T09:25:29.955Z,56.77
2023-05-21T09:27:56.986Z,57.60
2023-05-21T09:30:34.934Z,57.16
2023-05-21T09:33:03.406Z,57.89
2023-05-21T09:35:30.086Z,56.87
2023-05-21T09:37:57.649Z,57.72
2023-05-21T09:40:24.883Z,57.37
2023-05-21T09:42:53.146Z,57.18
2023-05-21T09:45:26.446Z,57.32
2023-05-21T09:47:54.936Z,57.83
2023-05-21T09:50:28.277Z,58.06
2023-05-21T09:52:55.559Z,58.90
2023-05-21T09:55:23.906Z,59.15
2023-05-21T09:57:51.054Z,58.71
2023-05-21T10:00:27.458Z,57.45
2023-05-21T10:02:56.065Z,57.55
2023-05-21T10:05:27.435Z,57.62
2023-05-21T10:07:59.993Z,55.48
2023-05-21T10:10:28.585Z,53.92
2023-05-21T10:13:04.148Z,54.15
2023-05-21T10:15:35.048Z,52.60
2023-05-21T10:18:02.426Z,50.87
2023-05-21T10:20:29.411Z,51.85
2023-05-21T10:22:56.801Z,50.10
2023-05-21T10:25:24.402Z,50.11
2023-05-21T10:27:51.729Z,50.48
2023-05-21T10:30:18.404Z,51.40
2023-05-21T10:32:47.736Z,50.84
2023-05-21T10:35:16.286Z,51.94
2023-05-21T10:37:46.335Z,51.93
2023-05-21T10:40:13.595Z,52.40
2023-05-21T10:43:13.383Z,52.65
2023-05-21T10:45:55.051Z,50.99
2023-05-21T10:48:58.480Z,52.06
2023-05-21T10:51:36.453Z,52.07
2023-05-21T10:54:21.062Z,52.75
2023-05-21T10:56:50.428Z,51.13
2023-05-21T10:59:25.790Z,51.72
2023-05-21T11:01:53.210Z,51.63
2023-05-21T11:04:23.830Z,50.80
2023-05-21T11:06:50.247Z,51.32
2023-05-21T11:09:17.236Z,50.13
2023-05-21T11:11:51.210Z,49.90
2023-05-21T11:14:38.949Z,49.37
2023-05-21T11:17:08.174Z,48.53
2023-05-21T11:19:38.470Z,50.07
2023-05-21T11:22:07.191Z,50.19
2023-05-21T11:24:37.355Z,49.31
2023-05-21T11:27:05.650Z,49.72
2023-05-21T11:29:44.264Z,49.00
2023-05-21T11:32:12.566Z,47.37
2023-05-21T11:34:46.398Z,47.97
2023-05-21T11:37:20.627Z,46.00
2023-05-21T11:39:48.179Z,45.31
2023-05-21T11:42:39.500Z,45.69
2023-05-21T11:45:06.399Z,45.91
2023-05-21T11:47:33.029Z,46.09
2023-05-21T11:50:01.205Z,46.18
2023-05-21T11:52:31.696Z,45.88
2023-05-21T11:54:59.697Z,45.55
2023-05-21T11:57:31.137Z,45.26
2023-05-21T11:59:59.096Z,45.05
2023-05-21T12:02:33.197Z,44.73
2023-05-21T12:05:00.473Z,44.42
2023-05-21T12:07:30.244Z,43.42
2023-05-21T12:09:57.751Z,43.75
2023-05-21T12:12:26.328Z,42.01
2023-05-21T12:14:54.884Z,43.21
2023-05-21T12:17:23.097Z,42.60
2023-05-21T12:19:56.518Z,43.17
2023-05-21T12:22:24.468Z,43.79
2023-05-21T12:24:51.536Z,42.46
2023-05-21T12:27:18.328Z,42.67
2023-05-21T12:29:46.176Z,43.10
2023-05-21T12:32:14.555Z,42.39
2023-05-21T12:34:46.958Z,43.29
2023-05-21T12:37:27.457Z,42.94
2023-05-21T12:39:55.786Z,43.12
2023-05-21T12:42:35.793Z,42.94
2023-05-21T12:45:07.322Z,41.81
2023-05-21T12:47:34.194Z,42.07
2023-05-21T12:50:02.083Z,42.47
2023-05-21T12:52:29.375Z,41.82
2023-05-21T12:54:57.087Z,42.50
2023-05-21T12:57:34.661Z,44.41
2023-05-21T13:00:01.872Z,45.01
2023-05-21T13:02:38.399Z,44.33
2023-05-21T13:05:09.808Z,44.92
2023-05-21T13:07:38.449Z,44.13
2023-05-21T13:10:07.087Z,43.88
2023-05-21T13:12:34.116Z,44.82
2023-05-21T13:15:02.005Z,43.91
2023-05-21T13:17:29.090Z,45.26
2023-05-21T13:20:07.296Z,43.84
2023-05-21T13:22:33.742Z,41.81
2023-05-21T13:25:00.188Z,42.71
2023-05-21T13:27:26.607Z,42.64
2023-05-21T13:29:53.068Z,42.72
2023-05-21T13:32:19.569Z,42.23
2023-05-21T13:34:46.343Z,43.49
2023-05-21T13:37:12.753Z,44.25
2023-05-21T13:39:39.313Z,43.81
2023-05-21T13:42:06.173Z,43.11
2023-05-21T13:44:36.063Z,44.65
2023-05-21T13:47:03.815Z,44.98
2023-05-21T13:49:30.434Z,46.18
2023-05-21T13:51:58.075Z,46.21
2023-05-21T13:54:24.623Z,46.26
2023-05-21T13:56:51.090Z,47.03
2023-05-21T13:59:17.560Z,46.71
2023-05-21T14:01:47.958Z,48.05
2023-05-21T14:04:14.403Z,47.83
2023-05-21T14:06:41.168Z,46.83
2023-05-21T14:09:07.999Z,46.89
2023-05-21T14:11:35.064Z,46.70
2023-05-21T14:14:02.880Z,47.17
2023-05-21T14:16:29.465Z,45.88
2023-05-21T14:18:57.162Z,45.74
2023-05-21T14:21:25.038Z,47.07
2023-05-21T14:23:52.193Z,46.93
2023-05-21T14:26:19.120Z,46.40
2023-05-21T14:28:46.249Z,46.55
2023-05-21T14:31:12.824Z,46.67
2023-05-21T14:33:39.315Z,46.58
2023-05-21T14:36:06.014Z,47.63
2023-05-21T14:38:32.552Z,47.43
2023-05-21T14:40:59.014Z,46.98
2023-05-21T14:43:25.523Z,48.68
2023-05-21T14:45:52.176Z,48.54
2023-05-21T14:48:22.646Z,48.66
2023-05-21T14:50:50.196Z,48.90
2023-05-21T14:53:17.160Z,49.33
2023-05-21T14:55:43.645Z,48.62
2023-05-21T14:58:10.258Z,49.20
2023-05-21T15:00:37.783Z,48.59
2023-05-21T15:03:05.188Z,49.40
2023-05-21T15:05:32.100Z,48.63
2023-05-21T15:07:58.549Z,48.82
2023-05-21T15:10:28.332Z,49.95
2023-05-21T15:12:54.775Z,50.25
2023-05-21T15:15:21.700Z,51.10
2023-05-21T15:17:49.292Z,51.50
2023-05-21T15:20:16.556Z,50.86
2023-05-21T15:22:43.118Z,51.49
2023-05-21T15:25:11.135Z,52.37
2023-05-21T15:27:37.573Z,51.76
2023-05-21T15:30:04.654Z,51.71
2023-05-21T15:32:31.593Z,51.52
2023-05-21T15:35:00.686Z,52.07
2023-05-21T15:37:27.566Z,51.26
2023-05-21T15:39:54.036Z,51.61
2023-05-21T15:42:20.465Z,51.77
2023-05-21T15:44:47.261Z,52.63
2023-05-21T15:47:13.706Z,53.93
2023-05-21T15:49:40.214Z,55.13
2023-05-21T15:52:06.974Z,54.51
2023-05-21T15:54:33.405Z,54.69
2023-05-21T15:56:59.833Z,54.95
2023-05-21T15:59:27.404Z,55.16
2023-05-21T16:01:55.612Z,55.37
2023-05-21T16:04:22.172Z,55.17
2023-05-21T16:06:48.712Z,55.47
2023-05-21T16:09:15.446Z,55.53
2023-05-21T16:11:44.639Z,55.66
2023-05-21T16:14:11.873Z,56.07
2023-05-21T16:16:38.887Z,56.33
2023-05-21T16:19:05.725Z,56.88
2023-05-21T16:21:32.935Z,56.83
2023-05-21T16:23:59.873Z,56.71
2023-05-21T16:26:26.320Z,56.37
2023-05-21T16:28:53.645Z,56.45
2023-05-21T16:31:20.436Z,57.77
2023-05-21T16:33:46.892Z,56.93
2023-05-21T16:36:13.359Z,56.83
2023-05-21T16:38:39.832Z,57.69
2023-05-21T16:41:07.025Z,56.96
2023-05-21T16:43:33.496Z,57.19
2023-05-21T16:45:59.980Z,57.20
2023-05-21T16:48:26.541Z,57.82
2023-05-21T16:50:53.015Z,57.34
2023-05-21T16:53:19.501Z,58.29
2023-05-21T16:55:45.929Z,58.06
2023-05-21T16:58:13.557Z,58.39
2023-05-21T17:00:39.997Z,58.76
2023-05-21T17:03:06.736Z,58.76
2023-05-21T17:05:33.371Z,59.16
2023-05-21T17:07:59.836Z,59.19
2023-05-21T17:10:26.336Z,59.46
2023-05-21T17:12:52.802Z,59.51
2023-05-21T17:15:19.230Z,59.72
2023-05-21T17:17:45.751Z,60.23
2023-05-21T17:20:12.727Z,59.56
2023-05-21T17:22:39.276Z,59.79
2023-05-21T17:25:06.434Z,60.05
2023-05-21T17:27:32.936Z,60.67
2023-05-21T17:29:59.482Z,60.76
2023-05-21T17:32:25.939Z,60.98
2023-05-21T17:34:53.040Z,60.90
2023-05-21T17:37:19.538Z,61.33
2023-05-21T17:39:45.969Z,60.77
2023-05-21T17:42:12.401Z,60.72
2023-05-21T17:44:38.827Z,61.32
2023-05-21T17:47:06.629Z,61.04
2023-05-21T17:49:33.233Z,61.48
2023-05-21T17:52:00.634Z,61.45
2023-05-21T17:54:27.428Z,62.04
2023-05-21T17:56:53.908Z,62.19
2023-05-21T17:59:21.365Z,62.64
2023-05-21T18:01:47.879Z,62.88
2023-05-21T18:04:14.403Z,62.38
2023-05-21T18:06:40.943Z,63.19
2023-05-21T18:09:07.912Z,62.77
2023-05-21T18:11:34.722Z,62.81
2023-05-21T18:14:01.379Z,62.60
2023-05-21T18:16:30.188Z,62.48
2023-05-21T18:18:57.220Z,62.46
2023-05-21T18:21:23.793Z,62.75
2023-05-21T18:23:50.216Z,62.89
2023-05-21T18:26:16.660Z,62.66
2023-05-21T18:28:43.156Z,62.78
2023-05-21T18:31:09.582Z,62.70
2023-05-21T18:33:36.271Z,63.36
2023-05-21T18:36:02.722Z,63.10
2023-05-21T18:38:29.147Z,63.44
2023-05-21T18:40:55.573Z,63.52
2023-05-21T18:43:22.085Z,63.29
2023-05-21T18:45:48.551Z,63.79
2023-05-21T18:48:15.014Z,63.52
2023-05-21T18:50:41.532Z,63.96
2023-05-21T18:53:08.000Z,64.11
2023-05-21T18:55:34.612Z,64.03
2023-05-21T18:58:01.208Z,64.07
2023-05-21T19:00:27.830Z,64.18
2023-05-21T19:02:55.441Z,64.28
2023-05-21T19:05:22.212Z,64.43
2023-05-21T19:07:49.585Z,64.69
2023-05-21T19:10:16.053Z,64.11
2023-05-21T19:12:43.432Z,64.21
2023-05-21T19:15:10.514Z,64.74
2023-05-21T19:17:39.009Z,64.92
2023-05-21T19:20:10.035Z,64.70
2023-05-21T19:22:37.214Z,64.92
2023-05-21T19:25:04.154Z,64.72
2023-05-21T19:27:30.617Z,64.94
2023-05-21T19:29:57.159Z,65.01
2023-05-21T19:32:23.751Z,64.93
2023-05-21T19:34:51.505Z,65.75
2023-05-21T19:37:18.120Z,65.75
2023-05-21T19:39:49.398Z,65.92
2023-05-21T19:42:17.330Z,65.58
2023-05-21T19:44:43.908Z,65.72
2023-05-21T19:47:10.618Z,66.38
2023-05-21T19:49:37.111Z,65.98
2023-05-21T19:52:04.534Z,66.46
2023-05-21T19:54:31.153Z,66.50
2023-05-21T19:56:57.744Z,66.26
2023-05-21T19:59:24.728Z,66.57
2023-05-21T20:01:51.758Z,66.42
2023-05-21T20:04:18.391Z,66.47
2023-05-21T20:06:44.945Z,66.23
2023-05-21T20:09:13.216Z,67.06
2023-05-21T20:11:42.130Z,66.76
2023-05-21T20:14:08.811Z,66.87
2023-05-21T20:16:35.380Z,67.04
2023-05-21T20:19:02.209Z,67.00
2023-05-21T20:21:30.186Z,67.01
2023-05-21T20:23:56.684Z,67.18
2023-05-21T20:26:23.171Z,67.36
2023-05-21T20:28:49.638Z,67.34
2023-05-21T20:31:16.201Z,67.26
2023-05-21T20:33:43.033Z,67.10
2023-05-21T20:36:09.565Z,67.88
2023-05-21T20:38:37.972Z,67.68
2023-05-21T20:41:04.886Z,67.44
2023-05-21T20:43:31.334Z,67.93
2023-05-21T20:46:01.600Z,68.03
2023-05-21T20:48:29.309Z,68.19
2023-05-21T20:50:57.456Z,68.23
2023-05-21T20:53:24.747Z,68.64
2023-05-21T20:55:52.662Z,67.97
2023-05-21T20:58:19.110Z,68.69
2023-05-21T21:00:48.349Z,68.37
2023-05-21T21:03:17.874Z,68.46
2023-05-21T21:05:44.812Z,68.68
2023-05-21T21:08:12.331Z,68.24
2023-05-21T21:10:41.243Z,68.11
2023-05-21T21:13:08.440Z,68.03
2023-05-21T21:15:36.930Z,67.85
2023-05-21T21:18:03.736Z,67.87
2023-05-21T21:20:30.354Z,68.35
2023-05-21T21:22:56.829Z,68.74
2023-05-21T21:25:23.322Z,68.32
2023-05-21T21:27:49.807Z,68.64
2023-05-21T21:30:16.329Z,68.44
2023-05-21T21:32:42.901Z,67.96
2023-05-21T21:35:12.866Z,68.08
2023-05-21T21:37:39.283Z,67.81
2023-05-21T21:40:06.508Z,68.14
2023-05-21T21:42:33.171Z,67.86
2023-05-21T21:44:59.592Z,68.37
2023-05-21T21:47:26.190Z,68.12
2023-05-21T21:49:52.655Z,68.35
2023-05-21T21:52:19.138Z,68.33
2023-05-21T21:54:45.688Z,68.76
2023-05-21T21:57:12.100Z,68.70
2023-05-21T21:59:39.085Z,68.72
2023-05-21T22:02:05.974Z,68.76
2023-05-21T22:04:32.533Z,68.76
2023-05-21T22:06:58.965Z,69.01
2023-05-21T22:09:25.437Z,68.86
2023-05-21T22:11:51.956Z,69.08
2023-05-21T22:14:19.362Z,68.78
2023-05-21T22:16:47.389Z,68.72
2023-05-21T22:19:15.604Z,68.96
2023-05-21T22:21:42.169Z,69.35
2023-05-21T22:24:14.977Z,68.71
2023-05-21T22:26:50.950Z,69.12
2023-05-21T22:29:17.371Z,68.74
2023-05-21T22:31:43.876Z,69.72
2023-05-21T22:34:10.369Z,69.01
2023-05-21T22:36:38.680Z,69.12
2023-05-21T22:39:05.628Z,69.47
2023-05-21T22:41:32.170Z,69.22
2023-05-21T22:43:58.620Z,69.36
2023-05-21T22:46:25.059Z,69.32
2023-05-21T22:48:51.632Z,69.76
2023-05-21T22:51:18.113Z,69.65
2023-05-21T22:53:45.561Z,69.79
2023-05-21T22:56:11.992Z,70.28
2023-05-21T22:58:38.493Z,70.25
2023-05-21T23:01:05.015Z,70.51
2023-05-21T23:03:31.439Z,70.74
2023-05-21T23:05:57.870Z,70.84
2023-05-21T23:08:24.329Z,71.13
2023-05-21T23:10:50.815Z,70.97
2023-05-21T23:13:17.262Z,71.41
2023-05-21T23:15:44.140Z,72.01
2023-05-21T23:18:11.328Z,72.26
2023-05-21T23:20:40.781Z,72.00
2023-05-21T23:23:07.787Z,71.90
2023-05-21T23:25:34.794Z,72.15
2023-05-21T23:28:01.965Z,72.52
2023-05-21T23:30:28.536Z,72.17
2023-05-21T23:32:55.004Z,71.95
2023-05-21T23:35:21.473Z,71.96
2023-05-21T23:37:48.072Z,72.13
2023-05-21T23:40:14.694Z,71.99
2023-05-21T23:42:41.264Z,72.12
2023-05-21T23:45:07.947Z,72.11
2023-05-21T23:47:34.353Z,72.35
2023-05-21T23:50:00.776Z,72.14
2023-05-21T23:52:27.248Z,72.31
2023-05-21T23:54:54.123Z,72.38
2023-05-21T23:57:20.557Z,72.07
2023-05-21T23:59:47.036Z,72.48
